Latest Coastal Weather Observations for Ballina

IDN60701

Issued at 11:41 am EST Tuesday 22 August 2017 (issued every 10 minutes, with the page automatically refreshed every 10 minutes)

About coastal observations | Map of coastal stations | Coastal observations for NSW | Marine services | Other Formats
Station Details ID: 058198 Name: BALLINA AIRPORT AWS Lat: -28.84 Lon: 153.56 Height: 1.3 m
Data from the previous 72 hours. | See also: Recent months at Ballina
Date/Time
EST
Temp
°C
Wind Pressure Rain since
9am
mm
Weather Cloud Vis
km
Sea
Height
m
Swell
Dir  Spd
kts
Gust
kts
hPa Trend Height
m
Period
s
Dir
22/11:30am 23.6 NNW 6 9 1017.8 - 0.0 - Partly cloudy 10 - - - -
22/11:00am 22.8 NNW 7 14 1018.2 - 0.0 - - 10 - - - -
22/10:30am 21.9 NNW 6 9 1018.8 - 0.0 - - 10 - - - -
22/10:00am 21.1 NW 8 11 1019.0 - 0.0 - - 10 - - - -
22/09:30am 20.2 N 9 12 1019.2 - 0.0 - - 10 - - - -
22/09:00am 19.3 N 6 10 1019.5 - 0.6 - Mostly cloudy 10 - - - -
22/08:30am 17.6 NNW 4 5 1019.7 - 0.6 - - 10 - - - -
22/08:00am 17.0 NNW 4 5 1019.7 - 0.6 - - 10 - - - -
22/07:30am 16.5 N 4 5 1019.4 - 0.6 - - 10 - - - -
22/07:00am 15.8 NNW 3 5 1019.1 - 0.6 - - 10 - - - -
22/06:30am 15.7 N 5 6 1018.8 - 0.6 - - 10 - - - -
22/06:00am 15.7 N 5 7 1018.5 - 0.6 - Mostly cloudy 10 - - - -
22/05:30am 16.1 N 5 8 1018.4 - 0.6 - - 10 - - - -
22/05:00am 16.1 NNW 7 12 1018.2 - 0.6 - - 10 - - - -
22/04:30am 15.9 NNW 6 8 1018.1 - 0.6 - - 10 - - - -
22/04:00am 15.6 NNW 6 9 1018.0 - 0.6 - - 10 - - - -
22/03:30am 15.7 N 6 9 1017.9 - 0.6 - - 10 - - - -
22/03:00am 15.3 N 6 8 1017.9 - 0.6 - Cloudy 10 - - - -
22/02:30am 15.1 N 5 7 1017.9 - 0.6 - Partly cloudy 10 - - - -
22/02:00am 15.5 N 6 7 1018.2 - 0.6 - Cloudy 10 - - - -
22/01:30am 15.2 NNW 7 9 1018.7 - 0.6 - Cloudy 10 - - - -
22/01:00am 15.2 N 7 9 1018.7 - 0.6 - Cloudy 10 - - - -
22/12:30am 15.3 N 9 11 1018.9 - 0.6 - Cloudy 10 - - - -
22/12:00am 15.4 N 6 7 1019.0 - 0.2 Rain Cloudy 10 - - - -
 
Date/Time
EST
Temp
°C
Wind Pressure Rain since
9am
mm
Weather Cloud Vis
km
Sea
Height
m
Swell
Dir  Spd
kts
Gust
kts
hPa Trend Height
m
Period
s
Dir
21/11:30pm 15.1 N 5 6 1019.2 - 0.0 - Partly cloudy 10 - - - -
21/11:00pm 16.2 NNW 7 10 1019.6 - 0.0 - Partly cloudy 10 - - - -
21/10:30pm 16.1 N 6 10 1019.5 - 0.0 - Partly cloudy 10 - - - -
21/10:00pm 16.3 N 7 10 1019.3 - 0.0 - Partly cloudy 10 - - - -
21/09:30pm 16.6 N 7 9 1019.4 - 0.0 - Partly cloudy 10 - - - -
21/09:00pm 16.7 N 8 10 1019.2 - 0.0 - Cloudy 10 - - - -
21/08:30pm 16.9 N 8 11 1019.2 - 0.0 - Partly cloudy 10 - - - -
21/08:00pm 16.7 N 7 10 1019.4 - 0.0 - Partly cloudy 10 - - - -
21/07:30pm 16.5 N 6 7 1019.6 - 0.0 - - 10 - - - -
21/07:00pm 16.5 NNE 6 8 1018.7 - 0.0 - - 10 - - - -
21/06:30pm 16.8 NNE 5 7 1018.9 - 0.0 - - 10 - - - -
21/06:00pm 16.7 NNE 4 6 1018.7 - 0.0 - Cloudy 10 - - - -
21/05:30pm 17.0 NNE 5 7 1018.8 - 0.0 - - 10 - - - -
21/05:00pm 17.5 NNE 6 9 1018.6 - 0.0 - - 10 - - - -
21/04:30pm 17.5 NNE 7 10 1018.5 - 0.0 - - 10 - - - -
21/04:00pm 17.5 NE 9 13 1018.0 - 0.0 - - 10 - - - -
21/03:30pm 17.4 ENE 11 14 1018.2 - 0.0 - - 10 - - - -
21/03:00pm 17.4 ENE 11 13 1018.5 - 0.0 - Cloudy 10 - - - -
21/02:30pm 17.4 E 8 11 1018.8 - 0.0 - - 10 - - - -
21/02:00pm 19.6 E 9 12 1019.1 - 0.0 - Partly cloudy 10 - - - -
21/01:30pm 18.4 ESE 9 13 1019.4 - 0.0 - Partly cloudy 10 - - - -
21/01:00pm 19.8 SE 5 10 1019.7 - 0.0 - - 10 - - - -
21/12:30pm 20.0 SE 6 9 1020.5 - 0.0 - - 10 - - - -
21/12:00pm 18.7 S 4 10 1021.1 - 0.0 - Mostly clear 10 - - - -
21/11:30am 18.7 SSW 6 9 1021.6 - 0.0 - - 10 - - - -
21/11:00am 18.0 SW 6 9 1022.0 - 0.0 - - 10 - - - -
21/10:30am 17.9 SW 6 8 1022.2 - 0.0 - - 10 - - - -
21/10:00am 17.2 SW 7 9 1022.5 - 0.0 - - 10 - - - -
21/09:30am 17.0 SW 7 10 1022.5 - 0.0 - - 10 - - - -
21/09:00am 17.0 WSW 10 12 1022.7 - 0.0 - - 10 - - - -
21/08:30am 15.4 W 7 9 1022.4 - 0.0 - - 10 - - - -
21/08:00am 14.3 W 2 7 1022.2 - 0.0 - - 10 - - - -
21/07:30am 11.7 CALM 0 0 1021.9 - 0.0 - - 10 - - - -
21/07:00am 9.3 WSW 5 6 1021.8 - 0.0 - - 10 - - - -
21/06:30am 8.1 WSW 5 6 1021.8 - 0.0 - - 10 - - - -
21/06:00am 8.1 W 7 8 1021.5 - 0.0 - - 10 - - - -
21/05:30am 7.8 WSW 5 6 1021.0 - 0.0 - - 10 - - - -
21/05:00am 8.2 WSW 6 7 1020.5 - 0.0 - - 10 - - - -
21/04:30am 9.7 WSW 7 8 1020.3 - 0.0 - - 10 - - - -
21/04:00am 8.1 W 6 7 1020.4 - 0.0 - - 10 - - - -
21/03:30am 7.9 W 4 5 1020.4 - 0.0 - - 10 - - - -
21/03:00am 8.4 W 7 7 1020.5 - 0.0 - - 10 - - - -
21/02:30am 8.8 W 6 7 1020.7 - 0.0 - - 10 - - - -
21/02:00am 9.2 W 6 7 1020.6 - 0.0 - - 10 - - - -
21/01:30am 9.0 W 5 7 1020.8 - 0.0 - - 10 - - - -
21/01:00am 10.0 W 5 5 1021.1 - 0.0 - - 10 - - - -
21/12:30am 9.5 W 6 7 1021.3 - 0.0 - - 10 - - - -
21/12:00am 10.6 WSW 6 7 1021.6 - 0.0 - - 10 - - - -
 
Date/Time
EST
Temp
°C
Wind Pressure Rain since
9am
mm
Weather Cloud Vis
km
Sea
Height
m
Swell
Dir  Spd
kts
Gust
kts
hPa Trend Height
m
Period
s
Dir
20/11:30pm 10.5 WSW 7 9 1021.8 - 0.0 - Partly cloudy 10 - - - -
20/11:00pm 12.1 WSW 7 9 1021.9 - 0.0 - Partly cloudy 10 - - - -
20/10:30pm 11.8 WSW 8 10 1021.4 - 0.0 - - 10 - - - -
20/10:00pm 12.3 SW 7 9 1021.4 - 0.0 - - 10 - - - -
20/09:30pm 13.2 SW 9 11 1021.5 - 0.0 - - 10 - - - -
20/09:00pm 12.1 WSW 6 8 1021.2 - 0.0 - Mostly clear 10 - - - -
20/08:30pm 13.4 WSW 8 11 1021.0 - 0.0 - Partly cloudy 10 - - - -
20/08:00pm 13.2 WSW 6 8 1020.9 - 0.0 - Partly cloudy 10 - - - -
20/07:30pm 14.7 SW 8 11 1021.0 - 0.0 - Partly cloudy 10 - - - -
20/07:00pm 15.6 SSW 11 16 1020.9 - 0.0 - - 10 - - - -
20/06:30pm 15.8 SSW 13 19 1020.6 - 0.0 - - 10 - - - -
20/06:00pm 16.1 S 14 20 1020.3 - 0.0 - Mostly clear 10 - - - -
20/05:30pm 16.3 S 14 23 1020.1 - 0.0 - - 10 - - - -
20/05:00pm 16.4 S 17 25 1019.7 - 0.0 - - 10 - - - -
20/04:36pm 16.6 S 17 27 1019.6 - 0.0 - - 10 - - - -
20/04:30pm 16.8 S 17 25 1019.5 - 0.0 - - 10 - - - -
20/04:00pm 17.2 S 18 26 1019.2 - 0.0 - - 10 - - - -
20/03:34pm 17.3 S 19 29 1019.2 - 0.0 - - 10 - - - -
20/03:30pm 17.2 S 21 29 1019.1 - 0.0 - - 10 - - - -
20/03:00pm 17.8 S 17 29 1018.9 - 0.0 - - 10 - - - -
20/02:30pm 17.7 S 17 27 1019.0 - 0.0 - - 10 - - - -
20/02:00pm 17.4 S 18 28 1019.1 - 0.0 - - 10 - - - -
20/01:30pm 17.8 S 18 27 1019.2 - 0.0 - - 10 - - - -
20/01:01pm 17.8 S 17 27 1019.7 - 0.0 - - 10 - - - -
20/01:00pm 18.1 S 18 27 1019.7 - 0.0 - - 10 - - - -
20/12:31pm 17.3 S 18 28 1019.9 - 0.0 - Partly cloudy 10 - - - -
20/12:30pm 17.2 S 19 28 1019.9 - 0.0 - Partly cloudy 10 - - - -
20/12:00pm 17.1 SSW 19 29 1020.2 - 0.0 - Mostly clear 10 - - - -
20/11:30am 16.9 SSW 16 27 1020.8 - 0.0 - Partly cloudy 10 - - - -
20/11:18am 16.4 SSW 15 25 1020.9 - 0.0 - - 10 - - - -
20/11:00am 16.6 SSW 17 26 1020.9 - 0.0 - - 10 - - - -
20/10:30am 16.0 SSW 16 28 1021.1 - 0.0 - Partly cloudy 10 - - - -
20/10:23am 15.8 SW 15 28 1021.2 - 0.0 - Partly cloudy 10 - - - -
20/10:00am 15.2 SW 14 21 1021.3 - 0.0 - Partly cloudy 10 - - - -
20/09:30am 15.0 WSW 14 19 1021.2 - 0.0 - - 10 - - - -
20/09:00am 14.3 WSW 15 20 1021.5 - 0.0 - - 10 - - - -
20/08:30am 13.6 WSW 12 16 1021.3 - 0.0 - Partly cloudy 10 - - - -
20/08:00am 12.8 WSW 12 16 1021.0 - 0.0 - Partly cloudy 10 - - - -
20/07:30am 11.1 W 10 14 1020.7 - 0.0 - Partly cloudy 10 - - - -
20/07:00am 9.3 W 9 12 1020.3 - 0.0 - Cloudy 10 - - - -
20/06:30am 9.6 W 8 11 1020.1 - 0.0 - Cloudy 10 - - - -
20/06:00am 8.8 WSW 10 13 1019.7 - 0.0 - Mostly cloudy 10 - - - -
20/05:30am 8.5 W 8 10 1019.2 - 0.0 - Cloudy 10 - - - -
20/05:00am 6.2 W 9 10 1019.1 - 0.0 - Partly cloudy 10 - - - -
20/04:30am 6.3 W 9 11 1018.8 - 0.0 - - 10 - - - -
20/04:00am 6.7 WSW 7 9 1018.5 - 0.0 - - 10 - - - -
20/03:30am 7.3 W 9 10 1018.3 - 0.0 - - 10 - - - -
20/03:00am 8.3 WSW 9 12 1018.1 - 0.0 - - 10 - - - -
20/02:30am 9.6 WSW 10 12 1017.9 - 0.0 - Partly cloudy 10 - - - -
20/02:00am 8.4 WSW 8 10 1018.2 - 0.0 - Partly cloudy 10 - - - -
20/01:30am 7.9 WSW 8 9 1018.3 - 0.0 - Partly cloudy 10 - - - -
20/01:00am 10.4 WSW 10 13 1018.5 - 0.0 - Cloudy 10 - - - -
20/12:30am 10.0 SW 8 11 1018.6 - 0.0 - Partly cloudy 10 - - - -
20/12:00am 6.7 W 6 8 1018.3 - 0.0 - Mostly clear 10 - - - -
 
Date/Time
EST
Temp
°C
Wind Pressure Rain since
9am
mm
Weather Cloud Vis
km
Sea
Height
m
Swell
Dir  Spd
kts
Gust
kts
hPa Trend Height
m
Period
s
Dir
19/11:30pm 7.5 WSW 7 9 1018.5 - 0.0 - - 10 - - - -
19/11:00pm 6.8 WSW 6 7 1018.6 - 0.0 - - 10 - - - -
19/10:30pm 9.0 W 5 6 1018.5 - 0.0 - - 10 - - - -
19/10:00pm 8.6 W 5 5 1018.3 - 0.0 - - 10 - - - -
19/09:30pm 10.1 WSW 7 8 1018.2 - 0.0 - - 10 - - - -
19/09:00pm 10.7 WSW 6 7 1018.0 - 0.0 - - 10 - - - -
19/08:30pm 12.7 WSW 8 10 1017.8 - 0.0 - - 10 - - - -
19/08:00pm 13.5 SW 9 12 1017.4 - 0.0 - - 10 - - - -
19/07:30pm 13.9 SW 9 13 1017.0 - 0.0 - - 10 - - - -
19/07:00pm 12.5 WSW 8 10 1016.6 - 0.0 - - 10 - - - -
19/06:30pm 14.6 SW 7 11 1016.3 - 0.0 - - 10 - - - -
19/06:00pm 15.5 SSW 8 14 1015.7 - 0.0 - - 10 - - - -
19/05:30pm 15.5 S 9 13 1015.2 - 0.0 - - 10 - - - -
19/05:00pm 16.2 S 9 15 1014.5 - 0.0 - - 10 - - - -
19/04:30pm 16.9 S 11 16 1013.9 - 0.0 - - 10 - - - -
19/04:00pm 17.4 S 14 19 1013.5 - 0.0 - - 10 - - - -
19/03:30pm 17.9 S 16 23 1013.2 - 0.0 - - 10 - - - -
19/03:00pm 19.6 SW 12 20 1012.7 - 0.0 - - 10 - - - -
19/02:30pm 19.7 SSW 14 21 1012.6 - 0.0 - - 10 - - - -
19/02:00pm 20.1 SW 13 22 1012.7 - 0.0 - - 10 - - - -
19/01:30pm 20.0 SW 14 21 1012.7 - 0.0 - - 10 - - - -
19/01:00pm 19.9 SW 14 20 1013.0 - 0.0 - - 10 - - - -
19/12:39pm 19.9 WSW 15 25 1013.1 - 0.0 - - 10 - - - -
19/12:30pm 19.1 WSW 15 21 1013.2 - 0.0 - - 10 - - - -
19/12:00pm 19.3 WSW 14 19 1013.6 - 0.0 - - 10 - - - -

Other Formats:

Comma delimited format used in spreadsheet applications
http://www.bom.gov.au/fwo/IDN60701/IDN60701.94596.axf

JavaScript Object Notation format (JSON) in row-major order
http://www.bom.gov.au/fwo/IDN60701/IDN60701.94596.json